Observations for CONINGSBY RAF, United Kingdom (EGXC)

EGXC 230950Z 32007KT CAVOK 18/08 Q1028 BLU  
EGXC 230850Z 32009KT CAVOK 16/09 Q1028 BLU  
EGXC 230750Z 33009KT CAVOK 14/09 Q1028 BLU  
EGXC 230650Z 31009KT CAVOK 14/08 Q1028 BLU  
EGXC 230550Z 29007KT CAVOK 12/07 Q1028 BLU  
EGXC 230450Z 28005KT CAVOK 10/06 Q1028 BLU  
EGXC 230350Z 28005KT CAVOK 09/06 Q1028 BLU  
EGXC 230250Z 28004KT CAVOK 09/06 Q1028 BLU  
EGXC 230150Z 33005KT CAVOK 10/07 Q1028 BLU  
EGXC 230050Z 29003KT CAVOK 11/07 Q1029 BLU  
EGXC 222350Z AUTO 09003KT 9999 // NCD 10/06 Q1029   
EGXC 222250Z 10004KT CAVOK 11/06 Q1029 BLU  
EGXC 222150Z 07003KT CAVOK 11/06 Q1029 BLU  
EGXC 222050Z 10004KT CAVOK 12/06 Q1029 BLU  
EGXC 221950Z 10005KT CAVOK 14/06 Q1029 BLU  
EGXC 221850Z 14007KT CAVOK 15/06 Q1029 BLU  
EGXC 221750Z 12007KT CAVOK 17/06 Q1029 BLU  
EGXC 221650Z 09009KT CAVOK 18/06 Q1029 BLU  
EGXC 221550Z 09008KT CAVOK 19/06 Q1030 BLU  
EGXC 221450Z 04009KT CAVOK 19/03 Q1030 BLU NOSIG
EGXC 221350Z 34009KT CAVOK 19/01 Q1030 BLU NOSIG
EGXC 221250Z 02009KT CAVOK 19/00 Q1030 BLU NOSIG
EGXC 221150Z 36008KT 9999 FEW040 18/01 Q1030 BLU NOSIG  
EGXC 221050Z 32009KT 9999 FEW035 17/02 Q1031 BLU NOSIG  
EGXC 220950Z 33008KT 9999 FEW030 16/03 Q1031 BLU NOSIG